createdAt,value
2023-04-17T00:00:25.887Z,12.00
2023-04-17T00:02:53.868Z,11.98
2023-04-17T00:05:23.352Z,11.97
2023-04-17T00:07:51.405Z,11.98
2023-04-17T00:10:19.216Z,11.97
2023-04-17T00:12:47.092Z,11.97
2023-04-17T00:15:16.453Z,11.98
2023-04-17T00:17:44.509Z,11.96
2023-04-17T00:20:13.392Z,11.96
2023-04-17T00:22:41.590Z,11.96
2023-04-17T00:25:12.856Z,11.96
2023-04-17T00:27:40.766Z,11.95
2023-04-17T00:30:11.221Z,11.95
2023-04-17T00:32:40.533Z,11.96
2023-04-17T00:35:09.013Z,11.95
2023-04-17T00:37:36.966Z,11.94
2023-04-17T00:40:05.419Z,11.94
2023-04-17T00:42:33.415Z,11.95
2023-04-17T00:45:01.211Z,11.94
2023-04-17T00:47:29.277Z,11.95
2023-04-17T00:49:58.759Z,11.95
2023-04-17T00:52:29.811Z,11.95
2023-04-17T00:54:59.533Z,11.96
2023-04-17T00:57:28.005Z,11.95
2023-04-17T00:59:57.946Z,11.95
2023-04-17T01:02:26.893Z,11.95
2023-04-17T01:04:54.857Z,11.94
2023-04-17T01:07:24.758Z,11.96
2023-04-17T01:09:52.760Z,11.95
2023-04-17T01:12:22.388Z,11.95
2023-04-17T01:14:51.050Z,11.95
2023-04-17T01:17:20.456Z,11.94
2023-04-17T01:19:48.997Z,11.94
2023-04-17T01:22:17.446Z,11.94
2023-04-17T01:24:47.089Z,11.95
2023-04-17T01:27:16.015Z,11.94
2023-04-17T01:29:46.147Z,11.94
2023-04-17T01:32:14.157Z,11.93
2023-04-17T01:34:42.321Z,11.93
2023-04-17T01:37:10.305Z,11.92
2023-04-17T01:39:38.240Z,11.93
2023-04-17T01:42:07.765Z,11.94
2023-04-17T01:44:37.509Z,11.93
2023-04-17T01:47:05.656Z,11.93
2023-04-17T01:49:33.900Z,11.93
2023-04-17T01:52:01.864Z,11.92
2023-04-17T01:54:29.709Z,11.92
2023-04-17T01:56:57.874Z,11.92
2023-04-17T01:59:27.152Z,11.95
2023-04-17T02:01:56.276Z,11.93
2023-04-17T02:04:24.509Z,11.91
2023-04-17T02:06:52.638Z,11.92
2023-04-17T02:09:20.453Z,11.91
2023-04-17T02:11:48.229Z,11.91
2023-04-17T02:14:18.783Z,11.92
2023-04-17T02:16:48.462Z,11.93
2023-04-17T02:19:16.196Z,11.91
2023-04-17T02:21:43.949Z,11.91
2023-04-17T02:24:11.717Z,11.90
2023-04-17T02:26:40.519Z,11.91
2023-04-17T02:29:08.412Z,11.89
2023-04-17T02:31:37.250Z,11.89
2023-04-17T02:34:06.413Z,11.90
2023-04-17T02:36:34.669Z,11.88
2023-04-17T02:39:02.426Z,11.89
2023-04-17T02:41:30.155Z,11.88
2023-04-17T02:43:59.177Z,11.87
2023-04-17T02:46:27.142Z,11.86
2023-04-17T02:48:55.008Z,11.85
2023-04-17T02:51:24.221Z,11.85
2023-04-17T02:53:52.004Z,11.82
2023-04-17T02:56:20.277Z,11.82
2023-04-17T02:58:48.068Z,11.82
2023-04-17T03:01:15.919Z,11.81
2023-04-17T03:03:46.619Z,11.79
2023-04-17T03:06:16.083Z,11.79
2023-04-17T03:08:45.294Z,11.80
2023-04-17T03:11:13.361Z,11.78
2023-04-17T03:13:41.307Z,11.76
2023-04-17T03:16:09.288Z,11.77
2023-04-17T03:18:41.493Z,11.78
2023-04-17T03:21:09.559Z,11.74
2023-04-17T03:23:37.790Z,11.73
2023-04-17T03:26:08.818Z,11.74
2023-04-17T03:28:37.351Z,11.71
2023-04-17T03:31:06.521Z,11.71
2023-04-17T03:33:37.815Z,11.70
2023-04-17T03:36:07.051Z,11.70
2023-04-17T03:38:38.027Z,11.71
2023-04-17T03:41:08.801Z,11.69
2023-04-17T03:43:36.569Z,11.68
2023-04-17T03:46:04.540Z,11.67
2023-04-17T03:48:33.188Z,11.66
2023-04-17T03:51:01.065Z,11.65
2023-04-17T03:53:30.919Z,11.64
2023-04-17T03:56:01.484Z,11.63
2023-04-17T03:58:35.638Z,11.35
2023-04-17T04:01:04.694Z,11.58
2023-04-17T04:03:36.935Z,11.58
2023-04-17T04:06:07.250Z,11.60
2023-04-17T04:08:35.514Z,11.59
2023-04-17T04:11:03.459Z,11.59
2023-04-17T04:13:41.093Z,11.58
2023-04-17T04:16:09.688Z,11.56
2023-04-17T04:18:39.901Z,11.54
2023-04-17T04:21:08.465Z,11.54
2023-04-17T04:23:41.168Z,11.52
2023-04-17T04:26:11.846Z,11.49
2023-04-17T04:28:47.469Z,11.47
2023-04-17T04:31:21.678Z,11.46
2023-04-17T04:33:54.988Z,11.44
2023-04-17T04:36:23.937Z,11.43
2023-04-17T04:39:02.028Z,11.42
2023-04-17T04:41:34.272Z,11.39
2023-04-17T04:44:06.117Z,11.42
2023-04-17T04:46:37.006Z,11.38
2023-04-17T04:49:06.856Z,11.39
2023-04-17T04:51:36.426Z,11.40
2023-04-17T04:54:07.480Z,11.39
2023-04-17T04:56:44.842Z,11.38
2023-04-17T04:59:15.561Z,11.39
2023-04-17T05:01:50.501Z,11.36
2023-04-17T05:04:21.514Z,11.37
2023-04-17T05:06:54.010Z,11.38
2023-04-17T05:09:22.257Z,11.38
2023-04-17T05:11:52.744Z,11.38
2023-04-17T05:14:22.261Z,11.40
2023-04-17T05:16:50.995Z,11.39
2023-04-17T05:19:19.914Z,11.40
2023-04-17T05:21:55.832Z,11.40
2023-04-17T05:24:24.792Z,11.40
2023-04-17T05:26:53.518Z,11.41
2023-04-17T05:29:24.760Z,11.43
2023-04-17T05:31:54.675Z,11.41
2023-04-17T05:34:42.798Z,11.40
2023-04-17T05:37:11.493Z,11.41
2023-04-17T05:39:39.487Z,11.41
2023-04-17T05:42:09.479Z,11.41
2023-04-17T05:44:38.740Z,11.42
2023-04-17T05:47:07.169Z,11.39
2023-04-17T05:49:35.241Z,11.39
2023-04-17T05:52:03.221Z,11.39
2023-04-17T05:54:31.166Z,11.39
2023-04-17T05:56:59.533Z,11.38
2023-04-17T05:59:28.343Z,11.39
2023-04-17T06:01:59.461Z,11.40
2023-04-17T06:04:29.468Z,11.38
2023-04-17T06:06:57.670Z,11.38
2023-04-17T06:17:46.425Z,11.28
2023-04-17T06:20:36.239Z,11.30
2023-04-17T06:23:30.173Z,11.30
2023-04-17T06:46:40.059Z,11.15
2023-04-17T06:49:09.453Z,11.18
2023-04-17T06:51:37.322Z,11.20
2023-04-17T06:54:05.474Z,11.22
2023-04-17T06:56:33.291Z,11.24
2023-04-17T06:59:02.483Z,11.27
2023-04-17T07:01:31.494Z,11.26
2023-04-17T07:03:59.507Z,11.27
2023-04-17T07:06:29.515Z,11.30
2023-04-17T07:08:57.303Z,11.25
2023-04-17T07:11:25.156Z,11.25
2023-04-17T07:13:52.995Z,11.25
2023-04-17T07:16:22.753Z,11.23
2023-04-17T07:18:51.125Z,11.23
2023-04-17T07:21:19.075Z,11.23
2023-04-17T07:23:48.286Z,11.23
2023-04-17T07:26:16.389Z,11.21
2023-04-17T07:28:44.152Z,11.20
2023-04-17T07:31:12.042Z,11.18
2023-04-17T07:33:40.672Z,11.16
2023-04-17T07:36:11.303Z,11.16
2023-04-17T07:38:40.948Z,11.12
2023-04-17T07:41:11.649Z,11.12
2023-04-17T07:43:39.523Z,11.10
2023-04-17T07:46:07.286Z,11.10
2023-04-17T07:48:35.071Z,11.09
2023-04-17T07:51:02.992Z,11.11
2023-04-17T07:53:30.870Z,11.13
2023-04-17T07:55:59.384Z,11.13
2023-04-17T07:58:28.780Z,11.18
2023-04-17T08:00:56.579Z,11.18
2023-04-17T08:03:25.830Z,11.22
2023-04-17T08:05:54.140Z,11.26
2023-04-17T08:08:23.703Z,11.29
2023-04-17T08:10:52.136Z,11.32
2023-04-17T08:13:19.952Z,11.36
2023-04-17T08:15:49.120Z,11.41
2023-04-17T08:18:16.912Z,11.42
2023-04-17T08:20:44.719Z,11.45
2023-04-17T08:23:12.504Z,11.47
2023-04-17T08:25:40.280Z,11.50
2023-04-17T08:28:08.164Z,11.51
2023-04-17T08:30:36.007Z,11.55
2023-04-17T08:33:05.349Z,11.59
2023-04-17T08:35:33.311Z,11.60
2023-04-17T08:38:01.195Z,11.64
2023-04-17T08:40:29.074Z,11.67
2023-04-17T08:42:56.936Z,11.74
2023-04-17T08:45:25.191Z,11.79
2023-04-17T08:47:53.108Z,11.86
2023-04-17T08:50:23.263Z,11.95
2023-04-17T08:52:52.999Z,12.00
2023-04-17T08:55:22.413Z,12.06
2023-04-17T08:57:58.680Z,12.14
2023-04-17T09:00:28.250Z,12.19
2023-04-17T09:02:57.729Z,12.24
2023-04-17T09:05:30.377Z,12.29
2023-04-17T09:08:12.941Z,12.30
2023-04-17T09:10:42.936Z,12.29
2023-04-17T09:13:14.258Z,12.32
2023-04-17T09:15:43.306Z,12.34
2023-04-17T09:18:27.444Z,12.36
2023-04-17T09:20:57.643Z,12.37
2023-04-17T09:23:25.653Z,12.37
2023-04-17T09:26:07.642Z,12.40
2023-04-17T09:28:39.232Z,12.40
2023-04-17T09:31:11.243Z,12.48
2023-04-17T09:33:56.979Z,12.51
2023-04-17T09:36:27.455Z,12.55
2023-04-17T09:38:55.990Z,12.61
2023-04-17T09:41:25.515Z,12.69
2023-04-17T09:43:54.791Z,12.75
2023-04-17T09:46:38.377Z,12.85
2023-04-17T09:49:12.002Z,12.92
2023-04-17T09:51:41.764Z,12.96
2023-04-17T09:54:11.397Z,13.04
2023-04-17T09:56:41.176Z,13.05
2023-04-17T09:59:09.854Z,13.12
2023-04-17T10:01:40.773Z,13.18
2023-04-17T10:04:09.080Z,13.21
2023-04-17T10:06:37.204Z,13.24
2023-04-17T10:09:08.083Z,13.27
2023-04-17T10:11:38.564Z,13.28
2023-04-17T10:14:13.035Z,13.32
2023-04-17T10:16:42.786Z,13.34
2023-04-17T10:19:31.097Z,13.36
2023-04-17T10:22:31.671Z,13.37
2023-04-17T10:25:20.493Z,13.39
2023-04-17T10:27:54.028Z,13.46
2023-04-17T10:30:23.840Z,13.49
2023-04-17T10:33:21.745Z,13.55
2023-04-17T10:35:50.461Z,13.61
2023-04-17T10:38:32.202Z,13.69
2023-04-17T10:41:05.039Z,13.75
2023-04-17T10:43:33.017Z,13.77
2023-04-17T10:46:06.515Z,13.84
2023-04-17T10:48:36.332Z,13.87
2023-04-17T10:51:37.612Z,13.92
2023-04-17T10:54:06.476Z,13.96
2023-04-17T10:56:39.604Z,14.04
2023-04-17T10:59:09.034Z,14.05
2023-04-17T11:01:40.566Z,14.09
2023-04-17T11:04:10.527Z,14.10
2023-04-17T11:06:40.502Z,14.12
2023-04-17T11:09:10.515Z,14.15
2023-04-17T11:11:44.548Z,14.17
2023-04-17T11:14:15.540Z,14.19
2023-04-17T11:16:45.275Z,14.20
2023-04-17T11:19:14.433Z,14.20
2023-04-17T11:21:44.076Z,14.21
2023-04-17T11:24:12.088Z,14.20
2023-04-17T11:26:45.595Z,14.21
2023-04-17T11:29:17.072Z,14.19
2023-04-17T11:31:45.667Z,14.16
2023-04-17T11:34:14.435Z,14.18
2023-04-17T11:36:49.338Z,14.18
2023-04-17T11:39:17.289Z,14.16
2023-04-17T11:41:46.834Z,14.22
2023-04-17T11:44:15.271Z,14.22
2023-04-17T11:46:43.284Z,14.25
2023-04-17T11:49:11.702Z,14.25
2023-04-17T11:51:39.835Z,14.28
2023-04-17T11:54:07.826Z,14.31
2023-04-17T11:56:35.688Z,14.32
2023-04-17T11:59:06.118Z,14.36
2023-04-17T12:01:34.017Z,14.41
2023-04-17T12:04:02.098Z,14.44
2023-04-17T12:06:37.086Z,14.48
2023-04-17T12:09:06.966Z,14.50
2023-04-17T12:11:34.931Z,14.55
2023-04-17T12:14:05.277Z,14.59
2023-04-17T12:16:33.295Z,14.62
2023-04-17T12:19:01.398Z,14.66
2023-04-17T12:21:29.304Z,14.69
2023-04-17T12:23:57.069Z,14.71
2023-04-17T12:26:25.666Z,14.76
2023-04-17T12:28:53.570Z,14.81
2023-04-17T12:31:22.752Z,14.88
2023-04-17T12:33:52.435Z,14.90
2023-04-17T12:36:20.359Z,14.94
2023-04-17T12:38:48.204Z,14.96
2023-04-17T12:41:16.001Z,15.01
2023-04-17T12:43:43.999Z,15.02
2023-04-17T12:46:11.934Z,15.03
2023-04-17T12:48:41.114Z,15.06
2023-04-17T12:51:08.978Z,15.04
2023-04-17T12:53:36.745Z,15.06
2023-04-17T12:56:04.834Z,15.07
2023-04-17T12:58:33.501Z,15.10
2023-04-17T13:01:01.369Z,15.10
2023-04-17T13:03:29.386Z,15.11
2023-04-17T13:05:58.985Z,15.16
2023-04-17T13:08:26.798Z,15.17
2023-04-17T13:10:54.667Z,15.20
2023-04-17T13:13:22.492Z,15.22
2023-04-17T13:15:50.465Z,15.23
2023-04-17T13:18:18.488Z,15.24
2023-04-17T13:20:46.463Z,15.29
2023-04-17T13:23:15.614Z,15.34
2023-04-17T13:25:43.426Z,15.36
2023-04-17T13:28:11.697Z,15.39
2023-04-17T13:30:39.929Z,15.42
2023-04-17T13:33:08.023Z,15.47
2023-04-17T13:35:35.996Z,15.47
2023-04-17T13:38:04.034Z,15.50
2023-04-17T13:40:33.194Z,15.50
2023-04-17T13:43:01.288Z,15.48
2023-04-17T13:45:29.142Z,15.48
2023-04-17T13:47:57.050Z,15.46
2023-04-17T13:50:24.930Z,15.45
2023-04-17T13:52:52.709Z,15.42
2023-04-17T13:55:20.735Z,15.41
2023-04-17T13:57:51.058Z,15.42
2023-04-17T14:00:20.864Z,15.40
2023-04-17T14:02:48.785Z,15.40
2023-04-17T14:05:17.032Z,15.41
2023-04-17T14:07:45.224Z,15.41
2023-04-17T14:10:13.239Z,15.43
2023-04-17T14:12:41.049Z,15.46
2023-04-17T14:15:11.587Z,15.49
2023-04-17T14:17:43.069Z,15.48
2023-04-17T14:20:12.082Z,15.52
2023-04-17T14:22:39.966Z,15.55
2023-04-17T14:25:08.689Z,15.55
2023-04-17T14:27:36.596Z,15.56
2023-04-17T14:30:05.151Z,15.55
2023-04-17T14:32:34.579Z,15.58
2023-04-17T14:35:02.745Z,15.59
2023-04-17T14:37:30.638Z,15.60
2023-04-17T14:39:59.049Z,15.62
2023-04-17T14:42:28.484Z,15.61
2023-04-17T14:44:56.390Z,15.63
2023-04-17T14:47:24.314Z,15.64
2023-04-17T14:49:53.628Z,15.65
2023-04-17T14:52:21.495Z,15.63
2023-04-17T14:54:49.359Z,15.65
2023-04-17T14:57:17.627Z,15.63
2023-04-17T14:59:45.558Z,15.65
2023-04-17T15:02:13.434Z,15.60
2023-04-17T15:04:42.352Z,15.60
2023-04-17T15:07:11.680Z,15.60
2023-04-17T15:09:39.547Z,15.58
2023-04-17T15:12:07.771Z,15.57
2023-04-17T15:14:35.642Z,15.55
2023-04-17T15:17:06.832Z,15.55
2023-04-17T15:19:35.109Z,15.53
2023-04-17T15:22:02.927Z,15.52
2023-04-17T15:24:32.593Z,15.52
2023-04-17T15:27:01.264Z,15.47
2023-04-17T15:29:29.423Z,15.45
2023-04-17T15:31:57.519Z,15.44
2023-04-17T15:34:25.398Z,15.42
2023-04-17T15:36:53.232Z,15.39
2023-04-17T15:39:21.148Z,15.38
2023-04-17T15:41:50.923Z,15.35
2023-04-17T15:44:18.874Z,15.32
2023-04-17T15:46:46.751Z,15.32
2023-04-17T15:49:14.641Z,15.30
2023-04-17T15:51:42.645Z,15.29
2023-04-17T15:54:11.977Z,15.28
2023-04-17T15:56:40.233Z,15.27
2023-04-17T15:59:09.619Z,15.28
2023-04-17T16:01:37.529Z,15.25
2023-04-17T16:04:05.928Z,15.23
2023-04-17T16:06:34.560Z,15.19
2023-04-17T16:09:03.487Z,15.16
2023-04-17T16:11:31.303Z,15.13
2023-04-17T16:13:59.271Z,15.10
2023-04-17T16:16:29.519Z,15.11
2023-04-17T16:18:57.733Z,15.06
2023-04-17T16:21:26.799Z,15.05
2023-04-17T16:23:54.795Z,15.03
2023-04-17T16:26:23.382Z,15.03
2023-04-17T16:28:51.332Z,15.01
2023-04-17T16:31:21.196Z,14.99
2023-04-17T16:33:50.513Z,14.98
2023-04-17T16:36:18.364Z,14.96
2023-04-17T16:38:47.246Z,14.97
2023-04-17T16:41:15.186Z,14.97
2023-04-17T16:43:43.219Z,14.97
2023-04-17T16:46:22.175Z,14.98
2023-04-17T16:48:54.245Z,14.98
2023-04-17T16:51:23.729Z,14.97
2023-04-17T16:53:51.708Z,14.98
2023-04-17T16:56:19.574Z,14.98
2023-04-17T16:58:47.366Z,14.98
2023-04-17T17:01:15.274Z,14.97
2023-04-17T17:03:43.490Z,14.98
2023-04-17T17:06:12.948Z,15.00
2023-04-17T17:08:43.110Z,14.96
2023-04-17T17:11:10.991Z,14.95
2023-04-17T17:13:38.819Z,14.95
2023-04-17T17:16:06.693Z,14.93
2023-04-17T17:18:34.601Z,14.90
2023-04-17T17:21:02.457Z,14.90
2023-04-17T17:23:32.198Z,14.90
2023-04-17T17:26:00.222Z,14.87
2023-04-17T17:28:28.240Z,14.86
2023-04-17T17:31:00.690Z,14.85
2023-04-17T17:33:28.674Z,14.79
2023-04-17T17:35:56.563Z,14.81
2023-04-17T17:38:24.727Z,14.78
2023-04-17T17:40:54.191Z,14.77
2023-04-17T17:43:22.112Z,14.74
2023-04-17T17:45:50.328Z,14.73
2023-04-17T17:48:20.453Z,14.71
2023-04-17T17:50:48.810Z,14.70
2023-04-17T17:53:18.530Z,14.68
2023-04-17T17:55:53.081Z,14.69
2023-04-17T17:58:21.757Z,14.64
2023-04-17T18:00:49.945Z,14.65
2023-04-17T18:03:18.295Z,14.64
2023-04-17T18:05:47.403Z,14.62
2023-04-17T18:08:15.707Z,14.60
2023-04-17T18:10:43.599Z,14.59
2023-04-17T18:13:12.858Z,14.59
2023-04-17T18:15:40.742Z,14.57
2023-04-17T18:18:08.846Z,14.55
2023-04-17T18:20:38.900Z,14.56
2023-04-17T18:23:06.745Z,14.53
2023-04-17T18:25:35.645Z,14.50
2023-04-17T18:28:03.780Z,14.49
2023-04-17T18:30:33.292Z,14.49
2023-04-17T18:33:01.169Z,14.45
2023-04-17T18:35:29.320Z,14.43
2023-04-17T18:37:57.351Z,14.42
2023-04-17T18:40:25.247Z,14.39
2023-04-17T18:42:53.160Z,14.36
2023-04-17T18:45:20.952Z,14.35
2023-04-17T18:47:50.494Z,14.36
2023-04-17T18:50:18.424Z,14.33
2023-04-17T18:52:49.625Z,14.31
2023-04-17T18:55:18.975Z,14.04
2023-04-17T18:57:46.956Z,14.26
2023-04-17T19:00:15.226Z,14.31
2023-04-17T19:02:43.236Z,14.30
2023-04-17T19:05:12.565Z,14.31
2023-04-17T19:07:40.531Z,14.28
2023-04-17T19:10:09.369Z,14.28
2023-04-17T19:12:37.413Z,14.26
2023-04-17T19:15:06.522Z,14.26
2023-04-17T19:17:34.548Z,14.23
2023-04-17T19:20:02.479Z,14.23
2023-04-17T19:22:31.823Z,14.23
2023-04-17T19:24:59.688Z,14.20
2023-04-17T19:27:27.496Z,14.19
2023-04-17T19:29:55.503Z,14.18
2023-04-17T19:32:23.400Z,14.17
2023-04-17T19:34:51.488Z,14.15
2023-04-17T19:37:19.333Z,14.13
2023-04-17T19:39:48.631Z,14.13
2023-04-17T19:42:16.552Z,14.09
2023-04-17T19:44:44.432Z,14.09
2023-04-17T19:47:12.795Z,14.07
2023-04-17T19:49:46.589Z,14.07
2023-04-17T19:52:15.067Z,14.02
2023-04-17T19:54:45.393Z,14.01
2023-04-17T19:57:14.661Z,14.00
2023-04-17T19:59:42.564Z,13.97
2023-04-17T20:02:12.205Z,13.95
2023-04-17T20:04:40.112Z,13.91
2023-04-17T20:07:08.002Z,13.90
2023-04-17T20:09:35.877Z,13.87
2023-04-17T20:12:04.023Z,13.84
2023-04-17T20:14:33.388Z,13.84
2023-04-17T20:17:01.316Z,13.79
2023-04-17T20:19:29.158Z,13.77
2023-04-17T20:21:56.978Z,13.76
2023-04-17T20:24:24.877Z,13.74
2023-04-17T20:26:52.823Z,13.73
2023-04-17T20:29:22.572Z,13.73
2023-04-17T20:31:51.951Z,13.71
2023-04-17T20:34:19.922Z,13.67
2023-04-17T20:36:47.809Z,13.64
2023-04-17T20:39:16.042Z,13.62
2023-04-17T20:41:43.882Z,13.59
2023-04-17T20:44:12.197Z,13.57
2023-04-17T20:46:40.360Z,13.54
2023-04-17T20:49:09.640Z,13.56
2023-04-17T20:51:37.540Z,13.51
2023-04-17T20:54:05.687Z,13.51
2023-04-17T20:56:33.731Z,13.48
2023-04-17T20:59:01.574Z,13.47
2023-04-17T21:01:31.614Z,13.47
2023-04-17T21:03:59.660Z,13.43
2023-04-17T21:06:29.012Z,13.44
2023-04-17T21:08:57.041Z,13.42
2023-04-17T21:11:24.970Z,13.40
2023-04-17T21:13:52.856Z,13.39
2023-04-17T21:16:20.729Z,13.39
2023-04-17T21:18:48.709Z,13.37
2023-04-17T21:21:16.640Z,13.36
2023-04-17T21:23:45.833Z,13.36
2023-04-17T21:26:13.685Z,13.33
2023-04-17T21:28:41.609Z,13.31
2023-04-17T21:31:10.392Z,13.30
2023-04-17T21:33:38.375Z,13.28
2023-04-17T21:36:06.665Z,13.27
2023-04-17T21:38:34.500Z,13.25
2023-04-17T21:41:03.972Z,13.25
2023-04-17T21:43:31.938Z,13.20
2023-04-17T21:46:00.021Z,13.18
2023-04-17T21:48:27.911Z,13.17
2023-04-17T21:51:01.708Z,13.15
2023-04-17T21:53:29.548Z,13.10
2023-04-17T21:55:57.576Z,13.08
2023-04-17T21:58:26.891Z,13.05
2023-04-17T22:00:56.545Z,13.02
2023-04-17T22:03:24.477Z,12.98
2023-04-17T22:05:54.048Z,12.95
2023-04-17T22:08:21.916Z,12.92
2023-04-17T22:10:49.761Z,12.89
2023-04-17T22:13:18.272Z,12.87
2023-04-17T22:15:49.141Z,12.85
2023-04-17T22:18:17.067Z,12.80
2023-04-17T22:20:45.165Z,12.78
2023-04-17T22:23:13.050Z,12.74
2023-04-17T22:25:40.852Z,12.71
2023-04-17T22:28:08.789Z,12.67
2023-04-17T22:30:36.703Z,12.64
2023-04-17T22:33:06.116Z,12.61
2023-04-17T22:35:33.988Z,12.56
2023-04-17T22:38:01.814Z,12.50
2023-04-17T22:40:30.883Z,12.47
2023-04-17T22:42:59.005Z,12.43
2023-04-17T22:45:27.009Z,12.41
2023-04-17T22:47:54.869Z,12.37
2023-04-17T22:50:24.038Z,12.37
2023-04-17T22:52:51.858Z,12.32
2023-04-17T22:55:19.902Z,12.31
2023-04-17T22:57:47.688Z,12.27
2023-04-17T23:00:17.190Z,12.26
2023-04-17T23:02:45.094Z,12.22
2023-04-17T23:05:12.962Z,12.19
2023-04-17T23:07:42.327Z,12.17
2023-04-17T23:10:10.966Z,12.14
2023-04-17T23:12:38.856Z,12.09
2023-04-17T23:15:08.328Z,12.08
2023-04-17T23:17:36.172Z,12.04
2023-04-17T23:20:04.447Z,12.01
2023-04-17T23:22:32.296Z,11.99
2023-04-17T23:25:01.574Z,11.98
2023-04-17T23:27:29.415Z,11.95
2023-04-17T23:29:58.720Z,11.93
2023-04-17T23:32:26.931Z,11.90
2023-04-17T23:34:55.037Z,11.87
2023-04-17T23:37:22.939Z,11.86
2023-04-17T23:39:50.729Z,11.84
2023-04-17T23:42:19.876Z,11.84
2023-04-17T23:44:47.777Z,11.78
2023-04-17T23:47:16.092Z,11.76
2023-04-17T23:49:43.883Z,11.74
2023-04-17T23:52:11.709Z,11.69
2023-04-17T23:54:39.517Z,11.67
2023-04-17T23:57:07.296Z,11.64
2023-04-17T23:59:36.451Z,11.63
